Time;durP1;ratioP1;P1;durP2;ratioP2;P2;SDS_P1;SDS_P2;PMS_P1;PMS_P2;Temp;Humidity;BMP_temperature;BMP_pressure;BME280_temperature;BME280_humidity;BME280_pressure;Samples;Min_cycle;Max_cycle;Signal;HPM_P1;HPM_P2
2021/09/23 00:00:52;;;;;;;6.03;3.03;;;;;;;;;;5052446;28;20041;-86
2021/09/23 00:06:02;;;;;;;6.03;3.78;;;;;;;;;;5034183;28;20045;-86
2021/09/23 00:08:29;;;;;;;7.90;3.72;;;;;;;;;;5032911;28;20047;-86
2021/09/23 00:10:56;;;;;;;5.90;3.22;;;;;;;;;;5051484;28;20041;-87
2021/09/23 00:13:25;;;;;;;5.32;2.83;;;;;;;;;;5046833;28;20043;-86
2021/09/23 00:15:52;;;;;;;4.65;3.05;;;;;;;;;;5027536;28;20045;-87
2021/09/23 00:18:20;;;;;;;6.43;3.65;;;;;;;;;;5057713;28;20047;-87
2021/09/23 00:20:49;;;;;;;5.97;2.85;;;;;;;;;;5051687;28;20496;-87
2021/09/23 00:23:17;;;;;;;4.28;2.90;;;;;;;;;;5051708;28;20041;-87
2021/09/23 00:25:43;;;;;;;5.43;2.92;;;;;;;;;;5030995;28;20363;-88
2021/09/23 00:28:11;;;;;;;6.30;3.80;;;;;;;;;;5053122;28;20477;-87
2021/09/23 00:30:39;;;;;;;5.68;3.30;;;;;;;;;;5053188;28;20134;-86
2021/09/23 00:33:05;;;;;;;5.57;3.30;;;;;;;;;;5053991;28;20044;-87
2021/09/23 00:35:34;;;;;;;6.47;3.33;;;;;;;;;;5055590;28;20393;-87
2021/09/23 00:38:01;;;;;;;6.18;3.88;;;;;;;;;;5022927;28;20049;-86
2021/09/23 00:40:28;;;;;;;7.68;3.60;;;;;;;;;;5038246;28;20044;-86
2021/09/23 00:42:55;;;;;;;8.05;3.92;;;;;;;;;;5032189;28;20051;-86
2021/09/23 00:45:23;;;;;;;6.00;3.72;;;;;;;;;;5049623;28;20520;-89
2021/09/23 00:47:50;;;;;;;6.03;3.42;;;;;;;;;;5033990;28;20056;-87
2021/09/23 00:50:19;;;;;;;5.65;2.75;;;;;;;;;;5050456;28;20116;-86
2021/09/23 00:52:48;;;;;;;7.00;3.53;;;;;;;;;;5052474;28;20132;-85
2021/09/23 00:55:15;;;;;;;5.38;3.25;;;;;;;;;;5038976;28;20599;-86
2021/09/23 00:57:42;;;;;;;5.88;3.03;;;;;;;;;;5019231;28;20072;-86
2021/09/23 01:00:12;;;;;;;5.20;3.00;;;;;;;;;;5020722;28;20111;-86
2021/09/23 01:02:39;;;;;;;5.47;3.33;;;;;;;;;;5035900;28;20045;-87
2021/09/23 01:05:07;;;;;;;15.18;3.50;;;;;;;;;;5037304;28;20044;-86
2021/09/23 01:07:34;;;;;;;7.22;3.33;;;;;;;;;;5037066;28;20527;-87
2021/09/23 01:10:04;;;;;;;4.63;2.67;;;;;;;;;;5054193;28;20037;-87
2021/09/23 01:12:31;;;;;;;6.10;3.33;;;;;;;;;;5022469;28;20044;-86
2021/09/23 01:14:57;;;;;;;6.07;3.28;;;;;;;;;;5020897;28;20045;-86
2021/09/23 01:17:24;;;;;;;5.63;2.97;;;;;;;;;;5054472;28;20045;-86
2021/09/23 01:19:51;;;;;;;9.85;3.60;;;;;;;;;;5049003;28;20041;-86
2021/09/23 01:22:19;;;;;;;5.53;3.75;;;;;;;;;;5038559;28;20045;-86
2021/09/23 01:24:46;;;;;;;9.32;3.20;;;;;;;;;;5021859;28;20061;-87
2021/09/23 01:27:14;;;;;;;6.28;3.40;;;;;;;;;;5055855;28;20055;-87
2021/09/23 01:29:41;;;;;;;6.10;3.30;;;;;;;;;;5021351;28;20049;-88
2021/09/23 01:32:08;;;;;;;6.03;3.53;;;;;;;;;;5054933;28;20036;-86
2021/09/23 01:34:36;;;;;;;5.70;2.92;;;;;;;;;;5054307;28;20041;-86
2021/09/23 01:37:03;;;;;;;5.90;3.15;;;;;;;;;;5047927;28;20038;-86
2021/09/23 01:39:31;;;;;;;5.90;3.40;;;;;;;;;;5049266;28;20473;-86
2021/09/23 01:41:58;;;;;;;4.65;3.10;;;;;;;;;;5020535;28;20436;-86
2021/09/23 01:44:25;;;;;;;6.85;3.33;;;;;;;;;;5055299;28;20036;-86
2021/09/23 01:46:52;;;;;;;6.07;3.72;;;;;;;;;;5055256;28;20049;-87
2021/09/23 01:49:18;;;;;;;6.28;3.40;;;;;;;;;;5034008;28;20056;-86
2021/09/23 01:51:45;;;;;;;5.38;3.13;;;;;;;;;;5036723;28;20053;-86
2021/09/23 01:54:12;;;;;;;5.15;3.13;;;;;;;;;;5036209;28;20048;-86
2021/09/23 01:56:40;;;;;;;5.97;3.47;;;;;;;;;;5046211;28;20048;-87
2021/09/23 01:59:07;;;;;;;6.68;3.83;;;;;;;;;;5052301;28;20040;-86
2021/09/23 02:01:34;;;;;;;5.57;3.03;;;;;;;;;;5049316;28;20365;-86
2021/09/23 02:04:00;;;;;;;6.05;2.90;;;;;;;;;;5037703;28;20103;-87
2021/09/23 02:06:27;;;;;;;7.57;3.70;;;;;;;;;;5037169;28;20036;-87
2021/09/23 02:08:54;;;;;;;7.15;3.97;;;;;;;;;;5049388;28;20047;-87
2021/09/23 02:11:22;;;;;;;6.35;3.30;;;;;;;;;;5031285;28;20053;-87
2021/09/23 02:13:50;;;;;;;6.43;3.30;;;;;;;;;;5039525;28;20040;-87
2021/09/23 02:16:17;;;;;;;5.72;3.28;;;;;;;;;;5054348;28;20374;-87
2021/09/23 02:18:43;;;;;;;5.55;3.30;;;;;;;;;;5035265;28;20041;-87
2021/09/23 02:21:11;;;;;;;5.85;3.78;;;;;;;;;;5047368;28;20059;-87
2021/09/23 02:23:37;;;;;;;9.82;3.65;;;;;;;;;;5032999;28;20497;-87
2021/09/23 02:26:04;;;;;;;6.10;3.60;;;;;;;;;;5036646;28;20051;-87
2021/09/23 02:28:31;;;;;;;8.80;3.60;;;;;;;;;;5036920;28;20056;-87
2021/09/23 02:30:59;;;;;;;5.88;3.47;;;;;;;;;;5054555;28;20473;-87
2021/09/23 02:33:26;;;;;;;6.30;3.85;;;;;;;;;;5028351;28;20046;-87
2021/09/23 02:35:53;;;;;;;5.65;3.35;;;;;;;;;;5034718;28;20044;-87
2021/09/23 02:38:20;;;;;;;5.45;3.22;;;;;;;;;;5054542;28;20052;-87
2021/09/23 02:40:47;;;;;;;6.60;3.78;;;;;;;;;;5035891;28;20048;-87
2021/09/23 02:43:14;;;;;;;7.72;3.75;;;;;;;;;;5019667;28;20099;-87
2021/09/23 02:45:41;;;;;;;6.32;3.63;;;;;;;;;;5050279;28;20477;-87
2021/09/23 02:48:09;;;;;;;5.35;3.50;;;;;;;;;;5025311;28;20044;-87
2021/09/23 02:50:36;;;;;;;5.50;3.42;;;;;;;;;;5054130;28;20056;-86
2021/09/23 02:53:02;;;;;;;6.80;3.80;;;;;;;;;;5053454;28;20059;-86
2021/09/23 02:55:29;;;;;;;7.60;3.78;;;;;;;;;;5054015;28;20052;-87
2021/09/23 02:57:56;;;;;;;6.53;4.07;;;;;;;;;;5037316;28;20037;-86
2021/09/23 03:00:23;;;;;;;6.22;3.95;;;;;;;;;;5051675;28;20039;-87
2021/09/23 03:02:50;;;;;;;7.18;3.97;;;;;;;;;;5054655;28;20388;-86
2021/09/23 03:05:18;;;;;;;7.72;4.05;;;;;;;;;;5033663;28;20111;-87
2021/09/23 03:07:45;;;;;;;5.68;3.40;;;;;;;;;;5045130;28;20057;-87
2021/09/23 03:10:12;;;;;;;10.18;3.33;;;;;;;;;;5037092;28;20447;-86
2021/09/23 03:12:39;;;;;;;6.05;3.55;;;;;;;;;;5020338;28;20037;-87
2021/09/23 03:15:06;;;;;;;9.40;5.00;;;;;;;;;;5034280;28;20072;-87
2021/09/23 03:17:33;;;;;;;8.30;3.88;;;;;;;;;;5048012;28;20102;-87
2021/09/23 03:20:00;;;;;;;8.65;4.70;;;;;;;;;;5034195;28;20052;-87
2021/09/23 03:22:28;;;;;;;8.07;4.07;;;;;;;;;;5032943;28;20041;-88
2021/09/23 03:24:55;;;;;;;8.40;4.50;;;;;;;;;;5044108;28;20041;-88
2021/09/23 03:27:23;;;;;;;9.48;4.95;;;;;;;;;;5030309;28;20397;-87
2021/09/23 03:29:49;;;;;;;7.22;4.35;;;;;;;;;;5016536;28;20099;-87
2021/09/23 03:32:16;;;;;;;7.60;4.45;;;;;;;;;;5016820;28;20056;-87
2021/09/23 03:34:43;;;;;;;8.63;4.65;;;;;;;;;;5017021;28;20449;-87
2021/09/23 03:37:10;;;;;;;9.18;5.10;;;;;;;;;;5015855;28;20095;-87
2021/09/23 03:39:38;;;;;;;12.10;5.38;;;;;;;;;;5015085;28;20038;-87
2021/09/23 03:42:05;;;;;;;8.80;4.90;;;;;;;;;;5023114;28;20045;-88
2021/09/23 03:44:32;;;;;;;8.57;4.22;;;;;;;;;;5036273;28;20073;-87
2021/09/23 03:46:59;;;;;;;7.32;4.57;;;;;;;;;;5023402;28;20046;-87
2021/09/23 03:49:26;;;;;;;7.32;4.38;;;;;;;;;;4997844;28;20106;-86
2021/09/23 03:51:53;;;;;;;9.80;5.13;;;;;;;;;;5031856;28;20049;-87
2021/09/23 03:54:20;;;;;;;9.23;5.13;;;;;;;;;;5028711;28;20045;-88
2021/09/23 03:56:48;;;;;;;8.45;4.78;;;;;;;;;;5031516;28;20049;-86
2021/09/23 03:59:15;;;;;;;8.07;4.40;;;;;;;;;;5030923;28;20485;-88
2021/09/23 04:01:49;;;;;;;8.93;5.15;;;;;;;;;;5014408;28;20106;-87
2021/09/23 04:04:22;;;;;;;9.48;5.15;;;;;;;;;;5015254;28;20037;-88
2021/09/23 04:06:49;;;;;;;8.18;4.55;;;;;;;;;;5032184;28;20049;-87
2021/09/23 04:09:18;;;;;;;8.57;4.30;;;;;;;;;;5013449;28;20508;-87
2021/09/23 04:11:45;;;;;;;7.72;4.53;;;;;;;;;;5031659;28;20078;-89
2021/09/23 04:14:17;;;;;;;7.45;4.13;;;;;;;;;;5013289;28;20745;-88
2021/09/23 04:16:44;;;;;;;8.07;4.22;;;;;;;;;;5013774;28;20049;-88
2021/09/23 04:19:11;;;;;;;8.95;5.32;;;;;;;;;;5012354;28;20128;-87
2021/09/23 04:21:38;;;;;;;8.38;4.53;;;;;;;;;;5010884;28;20041;-88
2021/09/23 04:24:05;;;;;;;7.78;4.85;;;;;;;;;;5009987;28;20048;-88
2021/09/23 04:26:32;;;;;;;7.80;4.30;;;;;;;;;;5031606;28;20041;-87
2021/09/23 04:28:59;;;;;;;8.02;4.43;;;;;;;;;;5030416;28;20045;-88
2021/09/23 04:31:27;;;;;;;7.65;4.13;;;;;;;;;;5029561;28;20110;-88
2021/09/23 04:33:54;;;;;;;8.82;4.90;;;;;;;;;;5049317;28;20120;-88
2021/09/23 04:36:21;;;;;;;7.60;4.65;;;;;;;;;;5042357;28;20048;-89
2021/09/23 04:38:47;;;;;;;9.25;4.70;;;;;;;;;;5027846;28;20056;-89
2021/09/23 04:41:14;;;;;;;8.55;4.22;;;;;;;;;;5047052;28;20037;-88
2021/09/23 04:43:46;;;;;;;7.18;4.75;;;;;;;;;;5016914;28;20037;-88
2021/09/23 04:46:20;;;;;;;8.13;4.50;;;;;;;;;;5048967;28;20493;-88
2021/09/23 04:48:49;;;;;;;9.63;4.85;;;;;;;;;;5050556;28;20064;-88
2021/09/23 04:51:26;;;;;;;;;;;;;;;;;;;;;
2021/09/23 04:53:53;;;;;;;8.85;5.00;;;;;;;;;;5050487;28;20054;-88
2021/09/23 04:56:20;;;;;;;12.10;5.45;;;;;;;;;;5049845;28;20481;-87
2021/09/23 04:58:47;;;;;;;12.93;5.32;;;;;;;;;;5048891;28;20272;-88
2021/09/23 05:01:14;;;;;;;16.85;6.43;;;;;;;;;;5041758;28;20045;-88
2021/09/23 05:03:42;;;;;;;31.15;6.43;;;;;;;;;;5047677;28;20068;-88
2021/09/23 05:06:10;;;;;;;13.88;5.35;;;;;;;;;;5045516;28;20079;-88
2021/09/23 05:08:38;;;;;;;9.48;4.93;;;;;;;;;;5049506;28;20049;-88
2021/09/23 05:11:05;;;;;;;9.63;4.80;;;;;;;;;;5049368;28;20124;-89
2021/09/23 05:13:32;;;;;;;10.75;4.85;;;;;;;;;;5046304;28;20057;-88
2021/09/23 05:15:59;;;;;;;8.40;4.70;;;;;;;;;;5051253;28;20053;-88
2021/09/23 05:18:26;;;;;;;8.90;4.18;;;;;;;;;;5051282;28;20033;-87
2021/09/23 05:20:53;;;;;;;8.30;4.63;;;;;;;;;;5053998;28;20049;-88
2021/09/23 05:23:22;;;;;;;10.27;4.43;;;;;;;;;;5046989;28;20071;-89
2021/09/23 05:25:49;;;;;;;6.72;4.13;;;;;;;;;;5049751;28;20049;-88
2021/09/23 05:28:16;;;;;;;9.07;4.43;;;;;;;;;;5055098;28;20040;-88
2021/09/23 05:30:44;;;;;;;10.95;4.65;;;;;;;;;;5054214;28;20045;-88
2021/09/23 05:33:12;;;;;;;11.13;4.70;;;;;;;;;;5046883;28;20037;-89
2021/09/23 05:35:39;;;;;;;10.85;6.57;;;;;;;;;;5047957;28;20064;-89
2021/09/23 05:38:06;;;;;;;11.73;5.80;;;;;;;;;;5051980;28;20048;-89
2021/09/23 05:40:34;;;;;;;12.82;7.47;;;;;;;;;;5052431;28;20404;-88
2021/09/23 05:43:01;;;;;;;15.05;7.53;;;;;;;;;;5052592;28;20128;-89
2021/09/23 05:45:28;;;;;;;15.50;7.45;;;;;;;;;;5053214;28;20049;-88
2021/09/23 05:47:55;;;;;;;12.32;7.40;;;;;;;;;;5050978;28;20045;-89
2021/09/23 05:50:22;;;;;;;9.88;6.53;;;;;;;;;;5033618;28;20133;-89
2021/09/23 05:52:49;;;;;;;10.55;5.82;;;;;;;;;;5051991;28;20499;-88
2021/09/23 05:55:16;;;;;;;11.20;6.45;;;;;;;;;;5047536;28;20070;-88
2021/09/23 05:57:44;;;;;;;12.93;6.45;;;;;;;;;;5046808;28;20050;-88
2021/09/23 06:00:13;;;;;;;11.60;5.75;;;;;;;;;;5052601;28;20045;-89
2021/09/23 06:02:40;;;;;;;9.27;5.18;;;;;;;;;;5053830;28;20485;-88
2021/09/23 06:05:08;;;;;;;8.98;5.18;;;;;;;;;;5052888;28;20099;-89
2021/09/23 06:07:34;;;;;;;10.80;5.95;;;;;;;;;;5051958;28;20047;-89
2021/09/23 06:10:01;;;;;;;10.70;5.78;;;;;;;;;;5052606;28;20056;-88
2021/09/23 06:12:28;;;;;;;12.27;5.30;;;;;;;;;;5049510;28;20124;-88
2021/09/23 06:14:57;;;;;;;10.88;5.93;;;;;;;;;;5047537;28;20469;-89
2021/09/23 06:17:23;;;;;;;10.98;6.15;;;;;;;;;;5052949;28;20040;-88
2021/09/23 06:19:50;;;;;;;10.63;5.20;;;;;;;;;;5052513;28;20045;-88
2021/09/23 06:22:17;;;;;;;8.25;4.63;;;;;;;;;;5051874;28;20168;-88
2021/09/23 06:24:44;;;;;;;11.63;5.82;;;;;;;;;;5037419;28;20107;-88
2021/09/23 06:27:11;;;;;;;9.52;5.50;;;;;;;;;;5034084;28;20042;-90
2021/09/23 06:29:38;;;;;;;9.10;5.05;;;;;;;;;;5051227;28;20385;-89
2021/09/23 06:32:07;;;;;;;10.40;6.13;;;;;;;;;;5044307;28;20385;-88
2021/09/23 06:34:34;;;;;;;9.75;5.47;;;;;;;;;;5055831;28;20635;-88
2021/09/23 06:37:01;;;;;;;21.40;7.40;;;;;;;;;;5052045;28;20045;-88
2021/09/23 06:39:28;;;;;;;9.50;5.88;;;;;;;;;;5052311;28;20045;-88
2021/09/23 06:41:56;;;;;;;10.40;6.10;;;;;;;;;;5051651;28;20048;-88
2021/09/23 06:44:23;;;;;;;10.98;6.65;;;;;;;;;;5036162;28;20049;-89
2021/09/23 06:46:50;;;;;;;15.00;6.63;;;;;;;;;;5049538;28;20543;-88
2021/09/23 06:49:20;;;;;;;10.75;6.38;;;;;;;;;;5030749;28;20463;-89
2021/09/23 06:51:46;;;;;;;9.38;5.68;;;;;;;;;;5035383;28;20099;-88
2021/09/23 06:54:13;;;;;;;10.63;5.65;;;;;;;;;;5052323;28;20049;-90
2021/09/23 06:56:40;;;;;;;11.48;6.80;;;;;;;;;;5048646;28;20041;-88
2021/09/23 06:59:07;;;;;;;10.43;6.53;;;;;;;;;;5052148;28;21313;-88
2021/09/23 07:01:34;;;;;;;11.82;6.30;;;;;;;;;;5035993;28;20040;-88
2021/09/23 07:04:01;;;;;;;11.50;6.72;;;;;;;;;;5051720;28;20060;-88
2021/09/23 07:06:30;;;;;;;10.98;7.05;;;;;;;;;;5034789;28;20045;-88
2021/09/23 07:08:59;;;;;;;12.52;7.57;;;;;;;;;;5052078;28;20373;-88
2021/09/23 07:11:26;;;;;;;10.52;6.30;;;;;;;;;;5052852;28;20072;-88
2021/09/23 07:13:52;;;;;;;11.38;6.68;;;;;;;;;;5054148;28;20108;-88
2021/09/23 07:16:19;;;;;;;13.55;7.18;;;;;;;;;;5053549;28;20044;-88
2021/09/23 07:18:46;;;;;;;12.57;7.13;;;;;;;;;;5033007;28;20049;-89
2021/09/23 07:21:13;;;;;;;10.73;6.43;;;;;;;;;;5042959;28;20036;-89
2021/09/23 07:23:42;;;;;;;9.60;6.65;;;;;;;;;;5050404;28;20099;-89
2021/09/23 07:26:09;;;;;;;11.25;6.60;;;;;;;;;;5051357;28;20045;-89
2021/09/23 07:28:36;;;;;;;12.55;7.25;;;;;;;;;;5054497;28;20045;-88
2021/09/23 07:31:05;;;;;;;10.30;6.20;;;;;;;;;;5053557;28;20474;-89
2021/09/23 07:33:31;;;;;;;17.35;7.10;;;;;;;;;;5054554;28;20045;-88
2021/09/23 07:36:00;;;;;;;11.43;6.43;;;;;;;;;;5052105;28;20059;-89
2021/09/23 07:38:28;;;;;;;10.65;6.43;;;;;;;;;;5051751;28;20036;-89
2021/09/23 07:40:57;;;;;;;9.35;6.18;;;;;;;;;;5053004;28;20072;-89
2021/09/23 07:43:24;;;;;;;10.30;6.30;;;;;;;;;;5051464;28;20041;-89
2021/09/23 07:45:51;;;;;;;8.02;5.68;;;;;;;;;;5043974;28;20045;-89
2021/09/23 07:48:24;;;;;;;11.07;5.75;;;;;;;;;;5031746;28;20393;-89
2021/09/23 07:50:53;;;;;;;7.82;5.45;;;;;;;;;;5040080;28;20103;-90
2021/09/23 07:53:19;;;;;;;7.82;5.68;;;;;;;;;;5051690;28;20041;-89
2021/09/23 07:55:46;;;;;;;8.23;4.97;;;;;;;;;;5049755;28;20045;-89
2021/09/23 07:58:15;;;;;;;10.10;5.22;;;;;;;;;;5038948;28;20095;-85
2021/09/23 08:00:46;;;;;;;7.63;5.18;;;;;;;;;;5048743;28;20546;-87
2021/09/23 08:03:12;;;;;;;9.18;5.05;;;;;;;;;;5067121;28;20115;-86
2021/09/23 08:05:40;;;;;;;7.82;4.85;;;;;;;;;;5049999;28;20540;-86
2021/09/23 08:08:08;;;;;;;7.18;5.47;;;;;;;;;;5044184;28;20044;-89
2021/09/23 08:10:36;;;;;;;7.82;4.95;;;;;;;;;;5051610;28;20469;-86
2021/09/23 08:13:05;;;;;;;7.13;4.57;;;;;;;;;;5049631;28;20094;-88
2021/09/23 08:15:41;;;;;;;7.25;4.95;;;;;;;;;;5051319;28;20044;-87
2021/09/23 08:18:15;;;;;;;7.10;4.90;;;;;;;;;;5034491;28;20104;-86
2021/09/23 08:20:42;;;;;;;7.72;4.78;;;;;;;;;;5050002;28;20064;-87
2021/09/23 08:23:11;;;;;;;6.93;4.43;;;;;;;;;;5051351;28;20041;-87
2021/09/23 08:25:40;;;;;;;6.80;4.75;;;;;;;;;;5052368;28;20409;-86
2021/09/23 08:28:12;;;;;;;6.68;4.30;;;;;;;;;;5035158;28;20370;-87
2021/09/23 08:30:44;;;;;;;7.82;4.38;;;;;;;;;;5033869;28;20044;-88
2021/09/23 08:33:14;;;;;;;6.93;4.53;;;;;;;;;;5042295;28;20061;-87
2021/09/23 08:35:41;;;;;;;6.20;4.57;;;;;;;;;;5048427;28;20037;-87
2021/09/23 08:38:11;;;;;;;7.95;4.65;;;;;;;;;;5047383;28;20072;-86
2021/09/23 08:40:37;;;;;;;7.38;4.13;;;;;;;;;;5052488;28;20094;-87
2021/09/23 08:43:07;;;;;;;5.85;3.90;;;;;;;;;;5051604;28;20049;-87
2021/09/23 08:45:34;;;;;;;7.45;3.90;;;;;;;;;;5059562;28;20100;-86
2021/09/23 08:48:03;;;;;;;4.97;3.72;;;;;;;;;;5054938;28;20049;-86
2021/09/23 08:50:31;;;;;;;7.35;4.30;;;;;;;;;;5050165;28;20449;-87
2021/09/23 08:52:58;;;;;;;6.25;4.10;;;;;;;;;;5050784;28;20497;-87
2021/09/23 08:55:27;;;;;;;6.65;4.00;;;;;;;;;;5036802;28;20390;-86
2021/09/23 08:57:55;;;;;;;6.10;3.95;;;;;;;;;;5054953;28;20497;-86
2021/09/23 09:00:22;;;;;;;4.95;3.90;;;;;;;;;;5055156;28;20613;-87
2021/09/23 09:03:02;;;;;;;5.93;4.07;;;;;;;;;;5054903;28;20124;-87
2021/09/23 09:05:29;;;;;;;6.82;3.70;;;;;;;;;;5046736;28;20577;-87
2021/09/23 09:08:01;;;;;;;7.25;3.95;;;;;;;;;;5052931;28;20045;-87
2021/09/23 09:10:28;;;;;;;6.32;4.40;;;;;;;;;;5053993;28;20064;-87
2021/09/23 09:12:55;;;;;;;6.55;4.53;;;;;;;;;;5035312;28;20076;-87
2021/09/23 09:15:30;;;;;;;6.10;4.25;;;;;;;;;;5053231;28;20550;-88
2021/09/23 09:17:57;;;;;;;5.50;3.58;;;;;;;;;;5060437;28;20041;-88
2021/09/23 09:20:53;;;;;;;4.95;3.65;;;;;;;;;;5058758;28;20098;-88
2021/09/23 09:23:20;;;;;;;5.65;3.85;;;;;;;;;;5051559;28;20095;-88
2021/09/23 09:25:47;;;;;;;4.93;3.50;;;;;;;;;;5052146;28;20615;-88
2021/09/23 09:28:16;;;;;;;5.20;3.50;;;;;;;;;;5036849;28;20116;-88
2021/09/23 09:30:43;;;;;;;6.28;3.63;;;;;;;;;;5051541;28;20041;-88
2021/09/23 09:33:11;;;;;;;6.43;3.65;;;;;;;;;;5054171;28;20127;-90
2021/09/23 09:35:39;;;;;;;6.30;3.60;;;;;;;;;;5049872;28;20392;-88
2021/09/23 09:38:07;;;;;;;6.70;4.38;;;;;;;;;;5051194;28;20099;-88
2021/09/23 09:40:36;;;;;;;7.18;3.70;;;;;;;;;;5051640;28;20052;-88
2021/09/23 09:43:06;;;;;;;5.60;4.18;;;;;;;;;;5053705;28;20056;-88
2021/09/23 09:45:35;;;;;;;6.65;4.03;;;;;;;;;;5053479;28;20036;-87
2021/09/23 09:48:03;;;;;;;5.10;3.97;;;;;;;;;;5047889;28;20040;-88
2021/09/23 09:50:32;;;;;;;7.15;4.28;;;;;;;;;;5052722;28;20068;-87
2021/09/23 09:53:03;;;;;;;5.95;4.28;;;;;;;;;;5054154;28;20045;-88
2021/09/23 09:55:32;;;;;;;6.03;4.20;;;;;;;;;;5045941;28;20041;-89
2021/09/23 09:57:59;;;;;;;5.00;3.55;;;;;;;;;;5052352;28;20045;-88
2021/09/23 10:00:28;;;;;;;4.25;3.45;;;;;;;;;;5052340;28;20398;-88
2021/09/23 10:02:55;;;;;;;5.38;4.07;;;;;;;;;;5053479;28;20041;-88
2021/09/23 10:05:23;;;;;;;4.93;3.65;;;;;;;;;;5048151;28;20529;-89
2021/09/23 10:07:52;;;;;;;11.20;4.03;;;;;;;;;;5051795;28;20049;-89
2021/09/23 10:10:21;;;;;;;6.03;3.97;;;;;;;;;;5052668;28;20073;-88
2021/09/23 10:12:49;;;;;;;6.20;3.88;;;;;;;;;;5049938;28;20120;-89
2021/09/23 10:15:18;;;;;;;4.85;3.63;;;;;;;;;;5051524;28;20045;-88
2021/09/23 10:17:46;;;;;;;5.35;3.67;;;;;;;;;;5051738;28;20230;-88
2021/09/23 10:20:15;;;;;;;5.97;3.42;;;;;;;;;;5046371;28;20069;-88
2021/09/23 10:22:42;;;;;;;6.05;3.53;;;;;;;;;;5047886;28;20140;-88
2021/09/23 10:25:35;;;;;;;5.80;3.72;;;;;;;;;;5050866;28;20045;-88
2021/09/23 10:34:35;;;;;;;4.28;3.40;;;;;;;;;;5010213;28;20079;-87
2021/09/23 10:37:30;;;;;;;4.85;3.55;;;;;;;;;;4987348;28;20045;-87
2021/09/23 10:42:52;;;;;;;;;;;;;;;;;;;;;
2021/09/23 10:45:27;;;;;;;4.45;3.35;;;;;;;;;;4977212;28;20050;-88
2021/09/23 10:50:54;;;;;;;4.80;3.60;;;;;;;;;;5044126;28;20049;-86
2021/09/23 10:53:21;;;;;;;5.78;3.67;;;;;;;;;;5056170;28;20045;-88
2021/09/23 10:56:01;;;;;;;;;;;;;;;;;;;;;
2021/09/23 10:58:44;;;;;;;;;;;;;;;;;;;;;
2021/09/23 11:01:36;;;;;;;5.57;2.95;;;;;;;;;;5033680;28;20060;-87
2021/09/23 11:04:04;;;;;;;7.43;3.60;;;;;;;;;;5048299;28;20525;-86
2021/09/23 11:06:33;;;;;;;4.65;3.25;;;;;;;;;;5054435;28;20110;-87
2021/09/23 11:09:00;;;;;;;4.90;3.58;;;;;;;;;;5048300;28;20500;-88
2021/09/23 11:11:27;;;;;;;5.63;3.33;;;;;;;;;;5049367;28;20059;-88
2021/09/23 11:13:54;;;;;;;5.10;3.72;;;;;;;;;;5049927;28;20040;-89
2021/09/23 11:16:22;;;;;;;4.82;3.38;;;;;;;;;;5033694;28;20120;-89
2021/09/23 11:18:50;;;;;;;5.07;3.45;;;;;;;;;;5051609;28;20040;-88
2021/09/23 11:21:16;;;;;;;4.90;3.28;;;;;;;;;;5053264;28;20401;-88
2021/09/23 11:23:45;;;;;;;5.43;3.50;;;;;;;;;;5052547;28;20044;-88
2021/09/23 11:26:12;;;;;;;5.15;3.65;;;;;;;;;;5051467;28;20047;-88
2021/09/23 11:28:39;;;;;;;5.25;3.83;;;;;;;;;;5048377;28;20041;-89
2021/09/23 11:31:06;;;;;;;4.63;3.25;;;;;;;;;;5051376;28;20044;-88
2021/09/23 11:33:41;;;;;;;5.95;3.13;;;;;;;;;;5054580;28;20500;-87
2021/09/23 11:36:08;;;;;;;;;;;;;;;;;;5025013;28;20037;-90
2021/09/23 11:38:35;;;;;;;5.82;2.95;;;;;;;;;;5051370;28;19940;-87
2021/09/23 11:41:02;;;;;;;4.35;3.22;;;;;;;;;;5047308;28;20063;-88
2021/09/23 11:43:31;;;;;;;4.35;2.90;;;;;;;;;;5048935;28;20413;-88
2021/09/23 11:46:13;;;;;;;5.05;2.50;;;;;;;;;;5049880;28;20087;-88
2021/09/23 11:48:41;;;;;;;5.80;2.67;;;;;;;;;;5033603;28;20041;-88
2021/09/23 11:51:14;;;;;;;4.13;2.40;;;;;;;;;;5022280;28;20037;-88
2021/09/23 11:53:41;;;;;;;4.80;2.60;;;;;;;;;;5057240;28;20052;-86
2021/09/23 11:56:09;;;;;;;5.10;2.70;;;;;;;;;;5055909;28;20080;-88
2021/09/23 11:58:38;;;;;;;3.22;2.17;;;;;;;;;;5055801;28;20482;-87
2021/09/23 12:01:06;;;;;;;3.30;2.28;;;;;;;;;;5050984;28;20041;-87
2021/09/23 12:03:38;;;;;;;3.20;2.30;;;;;;;;;;5056110;28;20115;-88
2021/09/23 12:06:10;;;;;;;3.92;1.98;;;;;;;;;;5049626;28;20433;-88
2021/09/23 12:08:36;;;;;;;3.60;2.10;;;;;;;;;;5040069;28;20045;-86
2021/09/23 12:11:05;;;;;;;3.40;2.20;;;;;;;;;;5032863;28;20056;-86
2021/09/23 12:13:36;;;;;;;3.40;2.10;;;;;;;;;;5045473;28;20578;-86
2021/09/23 12:16:05;;;;;;;5.22;2.40;;;;;;;;;;5050800;28;20044;-87
2021/09/23 12:18:32;;;;;;;3.05;2.25;;;;;;;;;;5051269;28;20492;-87
2021/09/23 12:21:01;;;;;;;3.97;2.42;;;;;;;;;;5052023;28;20384;-88
2021/09/23 12:23:32;;;;;;;3.42;2.25;;;;;;;;;;5034702;28;20045;-87
2021/09/23 12:26:30;;;;;;;4.68;2.17;;;;;;;;;;5048604;28;20127;-87
2021/09/23 12:29:03;;;;;;;5.00;2.25;;;;;;;;;;4972871;28;20046;-87
2021/09/23 12:31:33;;;;;;;3.90;2.33;;;;;;;;;;5034140;28;20045;-87
2021/09/23 12:34:03;;;;;;;2.85;2.05;;;;;;;;;;5049703;28;20041;-87
2021/09/23 12:36:32;;;;;;;4.07;2.65;;;;;;;;;;5055601;28;20120;-86
2021/09/23 12:39:19;;;;;;;3.05;2.15;;;;;;;;;;5054334;28;20382;-87
2021/09/23 12:42:05;;;;;;;2.88;1.83;;;;;;;;;;5049280;28;20068;-87
2021/09/23 12:44:32;;;;;;;;;;;;;;;;;;5057482;28;20041;-87
2021/09/23 12:47:14;;;;;;;3.78;2.55;;;;;;;;;;5052714;28;19924;-87
2021/09/23 12:49:44;;;;;;;5.97;2.85;;;;;;;;;;5044920;28;20463;-86
2021/09/23 12:52:19;;;;;;;3.78;2.15;;;;;;;;;;5054851;28;20049;-86
2021/09/23 12:55:06;;;;;;;3.83;2.10;;;;;;;;;;5053888;28;20083;-85
2021/09/23 12:57:34;;;;;;;2.95;1.80;;;;;;;;;;5047491;28;20037;-87
2021/09/23 13:00:10;;;;;;;4.60;2.38;;;;;;;;;;5047768;28;20045;-86
2021/09/23 13:02:37;;;;;;;3.17;2.20;;;;;;;;;;5057565;28;20047;-87
2021/09/23 13:05:07;;;;;;;4.05;2.05;;;;;;;;;;5054081;28;20091;-84
2021/09/23 13:07:42;;;;;;;4.68;1.90;;;;;;;;;;5054662;28;20437;-85
2021/09/23 13:10:13;;;;;;;2.67;1.92;;;;;;;;;;5062492;28;20775;-86
2021/09/23 13:12:41;;;;;;;3.42;2.10;;;;;;;;;;5054252;28;20370;-86
2021/09/23 13:15:20;;;;;;;4.50;2.30;;;;;;;;;;5046510;28;20051;-89
2021/09/23 13:17:58;;;;;;;3.20;2.28;;;;;;;;;;5046552;28;20044;-87
2021/09/23 13:20:25;;;;;;;3.92;2.35;;;;;;;;;;5055730;28;20045;-84
2021/09/23 13:22:51;;;;;;;3.47;2.50;;;;;;;;;;5045325;28;20053;-85
2021/09/23 13:25:20;;;;;;;3.85;2.25;;;;;;;;;;5053016;28;20485;-84
2021/09/23 13:27:47;;;;;;;3.50;2.17;;;;;;;;;;5055466;28;20048;-85
2021/09/23 13:30:15;;;;;;;4.20;2.13;;;;;;;;;;5048925;28;20116;-85
2021/09/23 13:32:44;;;;;;;4.38;2.55;;;;;;;;;;5046326;28;20067;-86
2021/09/23 13:35:12;;;;;;;3.95;2.33;;;;;;;;;;5043586;28;20041;-88
2021/09/23 13:37:39;;;;;;;3.75;2.30;;;;;;;;;;5053373;28;20063;-85
2021/09/23 13:40:07;;;;;;;3.65;2.10;;;;;;;;;;5052637;28;20041;-85
2021/09/23 13:42:36;;;;;;;5.13;2.85;;;;;;;;;;5048168;28;20408;-85
2021/09/23 13:45:19;;;;;;;4.35;2.58;;;;;;;;;;5054256;28;20052;-85
2021/09/23 13:47:46;;;;;;;3.60;2.67;;;;;;;;;;5051783;28;20057;-86
2021/09/23 13:50:13;;;;;;;5.65;2.85;;;;;;;;;;5054673;28;20037;-85
2021/09/23 13:52:40;;;;;;;3.50;2.50;;;;;;;;;;5061072;28;20040;-86
2021/09/23 13:55:09;;;;;;;5.05;3.50;;;;;;;;;;5051535;28;20477;-85
2021/09/23 13:57:37;;;;;;;5.00;3.40;;;;;;;;;;5055371;28;20040;-86
2021/09/23 14:00:06;;;;;;;3.97;2.90;;;;;;;;;;5035306;28;20048;-86
2021/09/23 14:02:32;;;;;;;6.22;3.17;;;;;;;;;;5035810;28;20124;-86
2021/09/23 14:04:59;;;;;;;5.13;3.28;;;;;;;;;;5052406;28;20045;-86
2021/09/23 14:07:26;;;;;;;5.75;3.00;;;;;;;;;;5053536;28;20041;-87
2021/09/23 14:09:52;;;;;;;6.38;2.95;;;;;;;;;;5048874;28;20398;-87
2021/09/23 14:12:19;;;;;;;6.90;3.60;;;;;;;;;;5054791;28;20032;-87
2021/09/23 14:14:48;;;;;;;4.05;2.63;;;;;;;;;;5033407;28;20107;-87
2021/09/23 14:17:17;;;;;;;3.90;2.92;;;;;;;;;;5052670;28;20044;-87
2021/09/23 14:19:44;;;;;;;5.03;3.25;;;;;;;;;;5042736;28;20056;-86
2021/09/23 14:22:11;;;;;;;4.22;2.90;;;;;;;;;;5043124;28;20040;-86
2021/09/23 14:24:38;;;;;;;6.03;3.15;;;;;;;;;;5053522;28;20132;-88
2021/09/23 14:27:05;;;;;;;3.67;2.50;;;;;;;;;;5045567;28;20044;-88
2021/09/23 14:29:32;;;;;;;5.38;2.72;;;;;;;;;;5044068;28;20085;-88
2021/09/23 14:32:00;;;;;;;4.30;2.97;;;;;;;;;;5048127;28;20553;-86
2021/09/23 14:34:27;;;;;;;4.00;2.97;;;;;;;;;;5051822;28;20325;-87
2021/09/23 14:36:54;;;;;;;5.10;3.08;;;;;;;;;;5049972;28;20420;-86
2021/09/23 14:39:21;;;;;;;4.40;3.05;;;;;;;;;;5040758;28;20128;-86
2021/09/23 14:41:48;;;;;;;4.60;3.22;;;;;;;;;;5035598;28;20123;-88
2021/09/23 14:44:15;;;;;;;4.25;2.70;;;;;;;;;;5050827;28;20072;-90
2021/09/23 14:46:41;;;;;;;4.38;2.80;;;;;;;;;;5052328;28;20366;-88
2021/09/23 14:49:11;;;;;;;4.28;3.10;;;;;;;;;;5034155;28;20045;-87
2021/09/23 14:51:37;;;;;;;4.72;3.10;;;;;;;;;;5050401;28;20047;-86
2021/09/23 14:54:04;;;;;;;5.78;3.13;;;;;;;;;;5046850;28;20033;-87
2021/09/23 14:56:31;;;;;;;4.82;2.90;;;;;;;;;;5049477;28;20103;-88
2021/09/23 14:58:58;;;;;;;4.15;3.05;;;;;;;;;;5049958;28;20053;-88
2021/09/23 15:01:25;;;;;;;5.97;2.83;;;;;;;;;;5041778;28;20485;-86
2021/09/23 15:03:51;;;;;;;3.63;2.67;;;;;;;;;;5046903;28;20511;-86
2021/09/23 15:06:19;;;;;;;5.38;2.92;;;;;;;;;;5048654;28;20045;-85
2021/09/23 15:08:46;;;;;;;5.18;2.95;;;;;;;;;;5048847;28;20110;-86